Terminal Aerodrome Forecast
Issued by NWS Cleveland, OH

Home | Current Version | Previous Version | Graphics & Text | Print | Product List | Glossary On
Versions: 1 2 3 4 5 6 7 8 9 10 11 12 13 14 15 16
000
FTUS41 KCLE 041730
TAFMFD
TAF
KMFD 041730Z 0418/0518 12008KT P6SM SCT120 OVC200
     FM042100 12008KT P6SM SCT025 OVC050
      TEMPO 0423/0501 5SM -RASN OVC025
     FM050100 12008KT 3SM -RASN BR OVC015
      TEMPO 0501/0505 2SM -RASN OVC006
     FM050500 22010KT P6SM OVC008
     FM051200 27010KT P6SM OVC012
     FM051600 27008KT P6SM OVC025=

USA.gov is the U.S. government's official web portal to all federal, state and local government web resources and services.